sensor_id;sensor_type;location;lat;lon;timestamp;temperature;humidity
11505;DHT22;5809;53.262;10.408;2023-07-02T00:04:12;14.60;99.90
11505;DHT22;5809;53.262;10.408;2023-07-02T00:06:43;14.60;99.90
11505;DHT22;5809;53.262;10.408;2023-07-02T00:09:10;14.60;99.90
11505;DHT22;5809;53.262;10.408;2023-07-02T00:11:37;14.50;99.90
11505;DHT22;5809;53.262;10.408;2023-07-02T00:14:05;14.50;99.90
11505;DHT22;5809;53.262;10.408;2023-07-02T00:18:59;14.50;99.90
11505;DHT22;5809;53.262;10.408;2023-07-02T00:21:26;14.50;99.90
11505;DHT22;5809;53.262;10.408;2023-07-02T00:23:55;14.50;99.90
11505;DHT22;5809;53.262;10.408;2023-07-02T00:26:23;14.40;99.90
11505;DHT22;5809;53.262;10.408;2023-07-02T00:28:50;14.40;99.90
11505;DHT22;5809;53.262;10.408;2023-07-02T00:31:17;14.40;99.90
11505;DHT22;5809;53.262;10.408;2023-07-02T00:33:44;14.40;99.90
11505;DHT22;5809;53.262;10.408;2023-07-02T00:38:40;14.40;99.90
11505;DHT22;5809;53.262;10.408;2023-07-02T00:41:09;14.40;99.90
11505;DHT22;5809;53.262;10.408;2023-07-02T00:43:36;14.30;99.90
11505;DHT22;5809;53.262;10.408;2023-07-02T00:50:59;14.30;99.90
11505;DHT22;5809;53.262;10.408;2023-07-02T00:55:53;14.30;99.90
11505;DHT22;5809;53.262;10.408;2023-07-02T00:58:21;14.30;99.90
11505;DHT22;5809;53.262;10.408;2023-07-02T01:03:15;14.30;99.90
11505;DHT22;5809;53.262;10.408;2023-07-02T01:05:42;14.40;99.90
11505;DHT22;5809;53.262;10.408;2023-07-02T01:13:08;14.50;99.90
11505;DHT22;5809;53.262;10.408;2023-07-02T01:15:37;14.50;99.90
11505;DHT22;5809;53.262;10.408;2023-07-02T01:18:05;14.50;99.90
11505;DHT22;5809;53.262;10.408;2023-07-02T01:20:34;14.50;99.90
11505;DHT22;5809;53.262;10.408;2023-07-02T01:23:03;14.50;99.90
11505;DHT22;5809;53.262;10.408;2023-07-02T01:25:30;14.50;99.90
11505;DHT22;5809;53.262;10.408;2023-07-02T01:30:29;14.40;99.90
11505;DHT22;5809;53.262;10.408;2023-07-02T01:32:56;14.30;99.90
11505;DHT22;5809;53.262;10.408;2023-07-02T01:35:22;14.20;99.90
11505;DHT22;5809;53.262;10.408;2023-07-02T01:37:51;14.20;99.90
11505;DHT22;5809;53.262;10.408;2023-07-02T01:40:19;14.20;99.90
11505;DHT22;5809;53.262;10.408;2023-07-02T01:45:12;14.10;99.90
11505;DHT22;5809;53.262;10.408;2023-07-02T01:47:39;14.10;99.90
11505;DHT22;5809;53.262;10.408;2023-07-02T01:50:07;14.00;99.90
11505;DHT22;5809;53.262;10.408;2023-07-02T01:55:03;13.90;99.90
11505;DHT22;5809;53.262;10.408;2023-07-02T01:57:31;13.90;99.90
11505;DHT22;5809;53.262;10.408;2023-07-02T01:59:57;13.90;99.90
11505;DHT22;5809;53.262;10.408;2023-07-02T02:02:24;13.90;99.90
11505;DHT22;5809;53.262;10.408;2023-07-02T02:04:51;13.90;99.90
11505;DHT22;5809;53.262;10.408;2023-07-02T02:07:18;13.90;99.90
11505;DHT22;5809;53.262;10.408;2023-07-02T02:09:45;13.90;99.90
11505;DHT22;5809;53.262;10.408;2023-07-02T02:12:13;13.90;99.90
11505;DHT22;5809;53.262;10.408;2023-07-02T02:17:07;13.90;99.90
11505;DHT22;5809;53.262;10.408;2023-07-02T02:19:34;14.00;99.90
11505;DHT22;5809;53.262;10.408;2023-07-02T02:22:01;14.00;99.90
11505;DHT22;5809;53.262;10.408;2023-07-02T02:24:28;14.00;99.90
11505;DHT22;5809;53.262;10.408;2023-07-02T02:26:55;14.00;99.90
11505;DHT22;5809;53.262;10.408;2023-07-02T02:29:23;14.00;99.90
11505;DHT22;5809;53.262;10.408;2023-07-02T02:31:50;14.10;99.90
11505;DHT22;5809;53.262;10.408;2023-07-02T02:36:44;14.10;99.90
11505;DHT22;5809;53.262;10.408;2023-07-02T02:39:12;14.10;99.90
11505;DHT22;5809;53.262;10.408;2023-07-02T02:44:06;14.20;99.90
11505;DHT22;5809;53.262;10.408;2023-07-02T02:46:35;14.30;99.90
11505;DHT22;5809;53.262;10.408;2023-07-02T02:49:01;14.30;99.90
11505;DHT22;5809;53.262;10.408;2023-07-02T02:51:28;14.30;99.90
11505;DHT22;5809;53.262;10.408;2023-07-02T02:53:55;14.40;99.90
11505;DHT22;5809;53.262;10.408;2023-07-02T02:56:22;14.40;99.90
11505;DHT22;5809;53.262;10.408;2023-07-02T02:58:49;14.50;99.90
11505;DHT22;5809;53.262;10.408;2023-07-02T03:01:16;14.50;99.90
11505;DHT22;5809;53.262;10.408;2023-07-02T03:03:44;14.50;99.90
11505;DHT22;5809;53.262;10.408;2023-07-02T03:06:12;14.50;99.90
11505;DHT22;5809;53.262;10.408;2023-07-02T03:11:07;14.60;99.90
11505;DHT22;5809;53.262;10.408;2023-07-02T03:16:01;14.60;99.90
11505;DHT22;5809;53.262;10.408;2023-07-02T03:18:28;14.60;99.90
11505;DHT22;5809;53.262;10.408;2023-07-02T03:20:56;14.60;99.90
11505;DHT22;5809;53.262;10.408;2023-07-02T03:23:23;14.50;99.90
11505;DHT22;5809;53.262;10.408;2023-07-02T03:25:50;14.50;99.90
11505;DHT22;5809;53.262;10.408;2023-07-02T03:30:43;14.50;99.90
11505;DHT22;5809;53.262;10.408;2023-07-02T03:35:37;14.50;99.90
11505;DHT22;5809;53.262;10.408;2023-07-02T03:38:05;14.50;99.90
11505;DHT22;5809;53.262;10.408;2023-07-02T03:40:32;14.50;99.90
11505;DHT22;5809;53.262;10.408;2023-07-02T03:42:59;14.50;99.90
11505;DHT22;5809;53.262;10.408;2023-07-02T03:45:26;14.40;99.90
11505;DHT22;5809;53.262;10.408;2023-07-02T03:50:20;14.40;99.90
11505;DHT22;5809;53.262;10.408;2023-07-02T03:52:47;14.40;99.90
11505;DHT22;5809;53.262;10.408;2023-07-02T03:55:17;14.40;99.90
11505;DHT22;5809;53.262;10.408;2023-07-02T03:57:43;14.50;99.90
11505;DHT22;5809;53.262;10.408;2023-07-02T04:00:11;14.60;99.90
11505;DHT22;5809;53.262;10.408;2023-07-02T04:02:38;14.60;99.90
11505;DHT22;5809;53.262;10.408;2023-07-02T04:05:05;14.60;99.90
11505;DHT22;5809;53.262;10.408;2023-07-02T04:07:32;14.70;99.90
11505;DHT22;5809;53.262;10.408;2023-07-02T04:12:28;14.80;99.90
11505;DHT22;5809;53.262;10.408;2023-07-02T04:14:55;14.80;99.90
11505;DHT22;5809;53.262;10.408;2023-07-02T04:17:22;14.80;99.90
11505;DHT22;5809;53.262;10.408;2023-07-02T04:24:43;14.80;99.90
11505;DHT22;5809;53.262;10.408;2023-07-02T04:27:10;14.90;99.90
11505;DHT22;5809;53.262;10.408;2023-07-02T04:29:40;14.90;99.90
11505;DHT22;5809;53.262;10.408;2023-07-02T04:32:07;15.00;99.90
11505;DHT22;5809;53.262;10.408;2023-07-02T04:39:29;15.00;99.90
11505;DHT22;5809;53.262;10.408;2023-07-02T04:44:24;15.10;99.90
11505;DHT22;5809;53.262;10.408;2023-07-02T04:46:56;15.20;99.90
11505;DHT22;5809;53.262;10.408;2023-07-02T04:49:23;15.20;99.90
11505;DHT22;5809;53.262;10.408;2023-07-02T04:51:50;15.20;99.90
11505;DHT22;5809;53.262;10.408;2023-07-02T04:54:19;15.30;99.90
11505;DHT22;5809;53.262;10.408;2023-07-02T04:56:46;15.40;99.90
11505;DHT22;5809;53.262;10.408;2023-07-02T05:01:40;15.60;99.90
11505;DHT22;5809;53.262;10.408;2023-07-02T05:04:10;15.70;99.90
11505;DHT22;5809;53.262;10.408;2023-07-02T05:13:58;16.30;99.90
11505;DHT22;5809;53.262;10.408;2023-07-02T05:18:52;16.70;47.60
11505;DHT22;5809;53.262;10.408;2023-07-02T05:21:22;16.60;88.90
11505;DHT22;5809;53.262;10.408;2023-07-02T05:23:49;16.50;99.90
11505;DHT22;5809;53.262;10.408;2023-07-02T05:28:43;16.40;66.10
11505;DHT22;5809;53.262;10.408;2023-07-02T05:31:10;16.40;99.90
11505;DHT22;5809;53.262;10.408;2023-07-02T05:33:38;16.40;99.90
11505;DHT22;5809;53.262;10.408;2023-07-02T05:36:05;16.40;91.00
11505;DHT22;5809;53.262;10.408;2023-07-02T05:38:33;16.50;93.70
11505;DHT22;5809;53.262;10.408;2023-07-02T05:41:02;16.70;1.00
11505;DHT22;5809;53.262;10.408;2023-07-02T05:43:29;16.70;1.00
11505;DHT22;5809;53.262;10.408;2023-07-02T05:45:58;16.50;1.00
11505;DHT22;5809;53.262;10.408;2023-07-02T05:48:25;16.60;1.00
11505;DHT22;5809;53.262;10.408;2023-07-02T05:50:53;16.90;1.00
11505;DHT22;5809;53.262;10.408;2023-07-02T05:53:20;17.00;1.00
11505;DHT22;5809;53.262;10.408;2023-07-02T05:55:48;17.00;1.00
11505;DHT22;5809;53.262;10.408;2023-07-02T05:58:15;17.30;1.00
11505;DHT22;5809;53.262;10.408;2023-07-02T06:00:42;17.40;1.00
11505;DHT22;5809;53.262;10.408;2023-07-02T06:03:14;17.50;99.90
11505;DHT22;5809;53.262;10.408;2023-07-02T06:05:46;17.80;99.90
11505;DHT22;5809;53.262;10.408;2023-07-02T06:08:13;17.70;99.90
11505;DHT22;5809;53.262;10.408;2023-07-02T06:10:39;18.00;99.90
11505;DHT22;5809;53.262;10.408;2023-07-02T06:13:07;18.00;17.10
11505;DHT22;5809;53.262;10.408;2023-07-02T06:15:34;18.50;1.00
11505;DHT22;5809;53.262;10.408;2023-07-02T06:18:01;18.30;1.00
11505;DHT22;5809;53.262;10.408;2023-07-02T06:20:28;18.50;1.00
11505;DHT22;5809;53.262;10.408;2023-07-02T06:22:55;18.50;1.00
11505;DHT22;5809;53.262;10.408;2023-07-02T06:25:21;18.50;99.90
11505;DHT22;5809;53.262;10.408;2023-07-02T06:27:48;18.80;1.00
11505;DHT22;5809;53.262;10.408;2023-07-02T06:30:17;18.50;99.90
11505;DHT22;5809;53.262;10.408;2023-07-02T06:32:43;18.80;99.90
11505;DHT22;5809;53.262;10.408;2023-07-02T06:40:05;19.00;1.00
11505;DHT22;5809;53.262;10.408;2023-07-02T06:42:32;19.20;99.90
11505;DHT22;5809;53.262;10.408;2023-07-02T06:45:01;19.10;99.90
11505;DHT22;5809;53.262;10.408;2023-07-02T06:47:29;19.30;1.00
11505;DHT22;5809;53.262;10.408;2023-07-02T06:49:56;19.50;1.00
11505;DHT22;5809;53.262;10.408;2023-07-02T06:52:23;19.60;1.00
11505;DHT22;5809;53.262;10.408;2023-07-02T06:54:50;20.00;1.00
11505;DHT22;5809;53.262;10.408;2023-07-02T06:59:44;19.90;32.40
11505;DHT22;5809;53.262;10.408;2023-07-02T07:02:11;19.70;1.00
11505;DHT22;5809;53.262;10.408;2023-07-02T07:04:39;19.70;99.90
11505;DHT22;5809;53.262;10.408;2023-07-02T07:07:06;19.90;99.90
11505;DHT22;5809;53.262;10.408;2023-07-02T07:09:33;20.00;99.90
11505;DHT22;5809;53.262;10.408;2023-07-02T07:11:59;19.50;99.90
11505;DHT22;5809;53.262;10.408;2023-07-02T07:16:53;19.70;7.40
11505;DHT22;5809;53.262;10.408;2023-07-02T07:19:20;20.00;1.00
11505;DHT22;5809;53.262;10.408;2023-07-02T07:21:48;20.10;1.00
11505;DHT22;5809;53.262;10.408;2023-07-02T07:24:15;20.30;1.00
11505;DHT22;5809;53.262;10.408;2023-07-02T07:26:42;20.30;1.00
11505;DHT22;5809;53.262;10.408;2023-07-02T07:29:10;20.40;99.90
11505;DHT22;5809;53.262;10.408;2023-07-02T07:31:37;20.60;1.00
11505;DHT22;5809;53.262;10.408;2023-07-02T07:34:04;20.60;1.00
11505;DHT22;5809;53.262;10.408;2023-07-02T07:36:30;20.70;99.90
11505;DHT22;5809;53.262;10.408;2023-07-02T07:38:59;20.70;1.00
11505;DHT22;5809;53.262;10.408;2023-07-02T07:41:25;20.80;85.50
11505;DHT22;5809;53.262;10.408;2023-07-02T07:43:52;21.10;1.00
11505;DHT22;5809;53.262;10.408;2023-07-02T07:48:46;21.60;1.00
11505;DHT22;5809;53.262;10.408;2023-07-02T07:51:13;21.80;1.00
11505;DHT22;5809;53.262;10.408;2023-07-02T07:53:40;21.80;1.00
11505;DHT22;5809;53.262;10.408;2023-07-02T07:56:09;21.60;1.00
11505;DHT22;5809;53.262;10.408;2023-07-02T07:58:36;21.50;99.90
11505;DHT22;5809;53.262;10.408;2023-07-02T08:01:03;21.10;1.00
11505;DHT22;5809;53.262;10.408;2023-07-02T08:03:30;20.90;1.00
11505;DHT22;5809;53.262;10.408;2023-07-02T08:05:57;21.10;1.00
11505;DHT22;5809;53.262;10.408;2023-07-02T08:08:24;20.60;99.90
11505;DHT22;5809;53.262;10.408;2023-07-02T08:10:50;20.10;1.00
11505;DHT22;5809;53.262;10.408;2023-07-02T08:13:19;19.80;1.00
11505;DHT22;5809;53.262;10.408;2023-07-02T08:15:45;19.30;1.00
11505;DHT22;5809;53.262;10.408;2023-07-02T08:18:13;19.30;1.00
11505;DHT22;5809;53.262;10.408;2023-07-02T08:20:40;19.50;1.00
11505;DHT22;5809;53.262;10.408;2023-07-02T08:23:07;20.10;99.90
11505;DHT22;5809;53.262;10.408;2023-07-02T08:25:34;20.60;1.00
11505;DHT22;5809;53.262;10.408;2023-07-02T08:28:00;20.90;1.00
11505;DHT22;5809;53.262;10.408;2023-07-02T08:30:29;20.60;1.00
11505;DHT22;5809;53.262;10.408;2023-07-02T08:32:56;20.60;1.00
11505;DHT22;5809;53.262;10.408;2023-07-02T08:35:22;21.00;1.00
11505;DHT22;5809;53.262;10.408;2023-07-02T08:37:49;21.50;1.00
11505;DHT22;5809;53.262;10.408;2023-07-02T08:40:17;21.90;99.90
11505;DHT22;5809;53.262;10.408;2023-07-02T08:42:45;21.90;99.90
11505;DHT22;5809;53.262;10.408;2023-07-02T08:45:13;21.70;99.90
11505;DHT22;5809;53.262;10.408;2023-07-02T08:47:43;22.10;99.90
11505;DHT22;5809;53.262;10.408;2023-07-02T08:50:11;21.60;99.90
11505;DHT22;5809;53.262;10.408;2023-07-02T08:52:38;21.70;99.90
11505;DHT22;5809;53.262;10.408;2023-07-02T08:55:05;21.60;99.90
11505;DHT22;5809;53.262;10.408;2023-07-02T08:57:33;21.90;99.90
11505;DHT22;5809;53.262;10.408;2023-07-02T09:00:04;22.20;99.90
11505;DHT22;5809;53.262;10.408;2023-07-02T09:02:33;21.90;1.00
11505;DHT22;5809;53.262;10.408;2023-07-02T09:05:02;22.00;99.90
11505;DHT22;5809;53.262;10.408;2023-07-02T09:07:29;21.50;99.90
11505;DHT22;5809;53.262;10.408;2023-07-02T09:09:56;21.20;99.90
11505;DHT22;5809;53.262;10.408;2023-07-02T09:12:24;21.60;99.90
11505;DHT22;5809;53.262;10.408;2023-07-02T09:14:55;22.10;99.90
11505;DHT22;5809;53.262;10.408;2023-07-02T09:17:27;22.50;99.90
11505;DHT22;5809;53.262;10.408;2023-07-02T09:19:55;22.70;99.90
11505;DHT22;5809;53.262;10.408;2023-07-02T09:22:23;23.20;1.00
11505;DHT22;5809;53.262;10.408;2023-07-02T09:24:54;23.20;1.00
11505;DHT22;5809;53.262;10.408;2023-07-02T09:27:33;23.50;1.00
11505;DHT22;5809;53.262;10.408;2023-07-02T09:30:06;23.40;43.50
11505;DHT22;5809;53.262;10.408;2023-07-02T09:32:33;23.00;99.90
11505;DHT22;5809;53.262;10.408;2023-07-02T09:35:00;23.20;1.00
11505;DHT22;5809;53.262;10.408;2023-07-02T09:37:28;23.60;1.00
11505;DHT22;5809;53.262;10.408;2023-07-02T09:39:56;23.80;99.90
11505;DHT22;5809;53.262;10.408;2023-07-02T09:42:25;23.90;99.90
11505;DHT22;5809;53.262;10.408;2023-07-02T09:44:53;23.50;99.90
11505;DHT22;5809;53.262;10.408;2023-07-02T09:47:21;22.70;99.90
11505;DHT22;5809;53.262;10.408;2023-07-02T09:49:52;22.00;1.00
11505;DHT22;5809;53.262;10.408;2023-07-02T09:57:16;22.40;99.90
11505;DHT22;5809;53.262;10.408;2023-07-02T10:02:10;21.40;99.90
11505;DHT22;5809;53.262;10.408;2023-07-02T10:04:42;21.10;99.90
11505;DHT22;5809;53.262;10.408;2023-07-02T10:17:26;23.00;99.90
11505;DHT22;5809;53.262;10.408;2023-07-02T10:22:22;23.00;99.90
11505;DHT22;5809;53.262;10.408;2023-07-02T10:27:33;23.60;99.90
11505;DHT22;5809;53.262;10.408;2023-07-02T10:34:58;23.20;99.90
11505;DHT22;5809;53.262;10.408;2023-07-02T10:37:35;23.00;99.90
11505;DHT22;5809;53.262;10.408;2023-07-02T10:40:03;23.00;99.90
11505;DHT22;5809;53.262;10.408;2023-07-02T10:52:23;21.80;99.90
11505;DHT22;5809;53.262;10.408;2023-07-02T11:02:13;20.30;99.90
11505;DHT22;5809;53.262;10.408;2023-07-02T11:04:42;20.50;99.90
11505;DHT22;5809;53.262;10.408;2023-07-02T11:07:09;22.00;99.90
11505;DHT22;5809;53.262;10.408;2023-07-02T11:14:32;23.70;99.90
11505;DHT22;5809;53.262;10.408;2023-07-02T11:17:01;23.10;99.90
11505;DHT22;5809;53.262;10.408;2023-07-02T11:21:58;23.90;99.90
11505;DHT22;5809;53.262;10.408;2023-07-02T11:26:56;24.50;99.90
11505;DHT22;5809;53.262;10.408;2023-07-02T11:34:19;25.50;99.90
11505;DHT22;5809;53.262;10.408;2023-07-02T11:41:45;25.70;99.90
11505;DHT22;5809;53.262;10.408;2023-07-02T11:44:12;25.20;99.90
11505;DHT22;5809;53.262;10.408;2023-07-02T11:46:38;25.30;99.90
11505;DHT22;5809;53.262;10.408;2023-07-02T11:56:31;24.10;99.90
11505;DHT22;5809;53.262;10.408;2023-07-02T12:01:25;23.90;99.90
11505;DHT22;5809;53.262;10.408;2023-07-02T12:06:19;25.20;99.90
11505;DHT22;5809;53.262;10.408;2023-07-02T12:11:13;23.50;99.90
11505;DHT22;5809;53.262;10.408;2023-07-02T12:23:31;24.80;99.90
11505;DHT22;5809;53.262;10.408;2023-07-02T12:25:57;24.90;99.90
11505;DHT22;5809;53.262;10.408;2023-07-02T12:30:53;25.20;1.00
11505;DHT22;5809;53.262;10.408;2023-07-02T12:33:19;22.30;99.90
11505;DHT22;5809;53.262;10.408;2023-07-02T12:43:07;26.30;99.90
11505;DHT22;5809;53.262;10.408;2023-07-02T12:50:30;27.10;99.90
11505;DHT22;5809;53.262;10.408;2023-07-02T12:55:24;25.00;99.90
11505;DHT22;5809;53.262;10.408;2023-07-02T13:02:46;23.30;99.90
11505;DHT22;5809;53.262;10.408;2023-07-02T13:05:14;24.10;99.90
11505;DHT22;5809;53.262;10.408;2023-07-02T13:10:09;23.90;99.90
11505;DHT22;5809;53.262;10.408;2023-07-02T13:15:03;22.70;99.90
11505;DHT22;5809;53.262;10.408;2023-07-02T13:17:30;22.90;99.90
11505;DHT22;5809;53.262;10.408;2023-07-02T13:44:32;24.10;99.90
11505;DHT22;5809;53.262;10.408;2023-07-02T13:54:20;23.30;99.90
11505;DHT22;5809;53.262;10.408;2023-07-02T13:59:18;22.20;99.90
11505;DHT22;5809;53.262;10.408;2023-07-02T14:14:02;25.00;99.90
11505;DHT22;5809;53.262;10.408;2023-07-02T14:21:26;25.90;99.90
11505;DHT22;5809;53.262;10.408;2023-07-02T14:33:42;23.00;99.90
11505;DHT22;5809;53.262;10.408;2023-07-02T14:53:24;21.80;99.90
11505;DHT22;5809;53.262;10.408;2023-07-02T15:05:40;21.50;99.90
11505;DHT22;5809;53.262;10.408;2023-07-02T15:08:09;21.60;99.90
11505;DHT22;5809;53.262;10.408;2023-07-02T15:20:26;21.20;99.90
11505;DHT22;5809;53.262;10.408;2023-07-02T15:49:59;20.50;99.90
11505;DHT22;5809;53.262;10.408;2023-07-02T15:54:53;21.10;99.90
11505;DHT22;5809;53.262;10.408;2023-07-02T15:57:20;21.00;99.90
11505;DHT22;5809;53.262;10.408;2023-07-02T15:59:48;20.80;99.90
11505;DHT22;5809;53.262;10.408;2023-07-02T16:02:15;20.60;99.90
11505;DHT22;5809;53.262;10.408;2023-07-02T16:04:42;20.30;99.90
11505;DHT22;5809;53.262;10.408;2023-07-02T16:07:12;20.00;99.90
11505;DHT22;5809;53.262;10.408;2023-07-02T16:12:07;20.20;99.90
11505;DHT22;5809;53.262;10.408;2023-07-02T16:14:35;20.50;99.90
11505;DHT22;5809;53.262;10.408;2023-07-02T16:17:05;20.70;99.90
11505;DHT22;5809;53.262;10.408;2023-07-02T16:21:59;20.80;99.90
11505;DHT22;5809;53.262;10.408;2023-07-02T16:24:28;20.90;99.90
11505;DHT22;5809;53.262;10.408;2023-07-02T16:26:56;20.70;99.90
11505;DHT22;5809;53.262;10.408;2023-07-02T16:29:24;20.40;99.90
11505;DHT22;5809;53.262;10.408;2023-07-02T16:31:54;20.10;99.90
11505;DHT22;5809;53.262;10.408;2023-07-02T16:34:23;19.90;99.90
11505;DHT22;5809;53.262;10.408;2023-07-02T16:36:51;19.90;99.90
11505;DHT22;5809;53.262;10.408;2023-07-02T16:39:19;19.90;99.90
11505;DHT22;5809;53.262;10.408;2023-07-02T16:41:46;20.00;99.90
11505;DHT22;5809;53.262;10.408;2023-07-02T16:44:15;20.20;99.90
11505;DHT22;5809;53.262;10.408;2023-07-02T16:46:44;20.10;99.90
11505;DHT22;5809;53.262;10.408;2023-07-02T16:49:11;20.00;99.90
11505;DHT22;5809;53.262;10.408;2023-07-02T16:51:41;20.00;99.90
11505;DHT22;5809;53.262;10.408;2023-07-02T16:54:10;19.90;99.90
11505;DHT22;5809;53.262;10.408;2023-07-02T16:56:41;19.80;99.90
11505;DHT22;5809;53.262;10.408;2023-07-02T16:59:11;19.80;99.90
11505;DHT22;5809;53.262;10.408;2023-07-02T17:01:38;19.70;99.90
11505;DHT22;5809;53.262;10.408;2023-07-02T17:04:05;19.70;99.90
11505;DHT22;5809;53.262;10.408;2023-07-02T17:06:32;19.60;99.90
11505;DHT22;5809;53.262;10.408;2023-07-02T17:09:22;19.60;99.90
11505;DHT22;5809;53.262;10.408;2023-07-02T17:11:51;19.60;99.90
11505;DHT22;5809;53.262;10.408;2023-07-02T17:14:22;19.60;99.90
11505;DHT22;5809;53.262;10.408;2023-07-02T17:16:52;19.60;99.90
11505;DHT22;5809;53.262;10.408;2023-07-02T17:19:23;19.60;99.90
11505;DHT22;5809;53.262;10.408;2023-07-02T17:21:51;19.60;99.90
11505;DHT22;5809;53.262;10.408;2023-07-02T17:24:25;19.50;99.90
11505;DHT22;5809;53.262;10.408;2023-07-02T17:26:53;19.60;99.90
11505;DHT22;5809;53.262;10.408;2023-07-02T17:29:21;19.30;99.90
11505;DHT22;5809;53.262;10.408;2023-07-02T17:31:49;19.20;99.90
11505;DHT22;5809;53.262;10.408;2023-07-02T17:34:18;19.30;99.90
11505;DHT22;5809;53.262;10.408;2023-07-02T17:36:47;19.20;99.90
11505;DHT22;5809;53.262;10.408;2023-07-02T17:39:15;19.10;99.90
11505;DHT22;5809;53.262;10.408;2023-07-02T17:41:44;19.00;99.90
11505;DHT22;5809;53.262;10.408;2023-07-02T17:44:12;19.00;99.90
11505;DHT22;5809;53.262;10.408;2023-07-02T17:46:40;19.00;99.90
11505;DHT22;5809;53.262;10.408;2023-07-02T17:49:07;19.00;99.90
11505;DHT22;5809;53.262;10.408;2023-07-02T17:51:34;18.90;99.90
11505;DHT22;5809;53.262;10.408;2023-07-02T17:54:01;18.90;99.90
11505;DHT22;5809;53.262;10.408;2023-07-02T17:56:29;18.80;99.90
11505;DHT22;5809;53.262;10.408;2023-07-02T17:58:57;18.80;99.90
11505;DHT22;5809;53.262;10.408;2023-07-02T18:01:24;18.80;99.90
11505;DHT22;5809;53.262;10.408;2023-07-02T18:03:51;18.80;99.90
11505;DHT22;5809;53.262;10.408;2023-07-02T18:06:19;18.80;99.90
11505;DHT22;5809;53.262;10.408;2023-07-02T18:08:46;18.70;99.90
11505;DHT22;5809;53.262;10.408;2023-07-02T18:11:12;18.60;99.90
11505;DHT22;5809;53.262;10.408;2023-07-02T18:13:39;18.60;99.90
11505;DHT22;5809;53.262;10.408;2023-07-02T18:16:08;18.50;99.90
11505;DHT22;5809;53.262;10.408;2023-07-02T18:18:34;18.60;99.90
11505;DHT22;5809;53.262;10.408;2023-07-02T18:21:01;18.40;1.00
11505;DHT22;5809;53.262;10.408;2023-07-02T18:23:29;18.40;99.90
11505;DHT22;5809;53.262;10.408;2023-07-02T18:25:56;18.40;1.00
11505;DHT22;5809;53.262;10.408;2023-07-02T18:28:26;18.40;60.20
11505;DHT22;5809;53.262;10.408;2023-07-02T18:30:53;18.40;54.20
11505;DHT22;5809;53.262;10.408;2023-07-02T18:33:23;18.30;1.00
11505;DHT22;5809;53.262;10.408;2023-07-02T18:35:50;18.30;99.90
11505;DHT22;5809;53.262;10.408;2023-07-02T18:38:17;18.10;88.70
11505;DHT22;5809;53.262;10.408;2023-07-02T18:40:44;18.10;91.50
11505;DHT22;5809;53.262;10.408;2023-07-02T18:43:12;18.00;99.90
11505;DHT22;5809;53.262;10.408;2023-07-02T18:45:39;17.80;99.90
11505;DHT22;5809;53.262;10.408;2023-07-02T18:48:06;17.80;99.90
11505;DHT22;5809;53.262;10.408;2023-07-02T18:50:36;17.80;99.90
11505;DHT22;5809;53.262;10.408;2023-07-02T18:53:04;17.80;99.90
11505;DHT22;5809;53.262;10.408;2023-07-02T18:55:31;17.80;99.90
11505;DHT22;5809;53.262;10.408;2023-07-02T18:57:57;17.80;99.90
11505;DHT22;5809;53.262;10.408;2023-07-02T19:00:24;17.70;99.90
11505;DHT22;5809;53.262;10.408;2023-07-02T19:02:51;17.60;1.00
11505;DHT22;5809;53.262;10.408;2023-07-02T19:05:18;17.50;1.00
11505;DHT22;5809;53.262;10.408;2023-07-02T19:07:46;17.50;1.00
11505;DHT22;5809;53.262;10.408;2023-07-02T19:10:15;17.50;1.00
11505;DHT22;5809;53.262;10.408;2023-07-02T19:12:45;17.40;1.00
11505;DHT22;5809;53.262;10.408;2023-07-02T19:15:12;17.40;1.00
11505;DHT22;5809;53.262;10.408;2023-07-02T19:17:39;17.30;1.00
11505;DHT22;5809;53.262;10.408;2023-07-02T19:20:07;17.20;1.00
11505;DHT22;5809;53.262;10.408;2023-07-02T19:22:34;17.20;1.00
11505;DHT22;5809;53.262;10.408;2023-07-02T19:25:02;17.10;1.00
11505;DHT22;5809;53.262;10.408;2023-07-02T19:27:29;17.10;99.90
11505;DHT22;5809;53.262;10.408;2023-07-02T19:29:56;17.00;99.90
11505;DHT22;5809;53.262;10.408;2023-07-02T19:32:25;16.90;1.00
11505;DHT22;5809;53.262;10.408;2023-07-02T19:34:54;16.90;99.90
11505;DHT22;5809;53.262;10.408;2023-07-02T19:37:21;16.80;99.90
11505;DHT22;5809;53.262;10.408;2023-07-02T19:39:49;16.80;1.00
11505;DHT22;5809;53.262;10.408;2023-07-02T19:42:18;16.70;15.20
11505;DHT22;5809;53.262;10.408;2023-07-02T19:44:45;16.60;1.00
11505;DHT22;5809;53.262;10.408;2023-07-02T19:47:12;16.50;1.00
11505;DHT22;5809;53.262;10.408;2023-07-02T19:49:41;16.40;1.00
11505;DHT22;5809;53.262;10.408;2023-07-02T19:52:12;16.40;1.00
11505;DHT22;5809;53.262;10.408;2023-07-02T19:54:39;16.30;1.00
11505;DHT22;5809;53.262;10.408;2023-07-02T19:57:12;16.20;1.00
11505;DHT22;5809;53.262;10.408;2023-07-02T19:59:50;16.30;99.90
11505;DHT22;5809;53.262;10.408;2023-07-02T20:02:19;16.30;99.90
11505;DHT22;5809;53.262;10.408;2023-07-02T20:04:48;16.30;99.90
11505;DHT22;5809;53.262;10.408;2023-07-02T20:07:16;16.30;99.90
11505;DHT22;5809;53.262;10.408;2023-07-02T20:09:43;16.30;1.00
11505;DHT22;5809;53.262;10.408;2023-07-02T20:12:11;16.30;99.90
11505;DHT22;5809;53.262;10.408;2023-07-02T20:14:39;16.20;92.30
11505;DHT22;5809;53.262;10.408;2023-07-02T20:17:09;16.20;51.80
11505;DHT22;5809;53.262;10.408;2023-07-02T20:19:36;16.20;1.00
11505;DHT22;5809;53.262;10.408;2023-07-02T20:22:03;16.20;99.90
11505;DHT22;5809;53.262;10.408;2023-07-02T20:24:30;16.20;1.00
11505;DHT22;5809;53.262;10.408;2023-07-02T20:26:57;16.20;1.00
11505;DHT22;5809;53.262;10.408;2023-07-02T20:29:24;16.20;1.00
11505;DHT22;5809;53.262;10.408;2023-07-02T20:31:51;16.10;29.00
11505;DHT22;5809;53.262;10.408;2023-07-02T20:34:19;16.10;28.20
11505;DHT22;5809;53.262;10.408;2023-07-02T20:36:49;16.10;99.90
11505;DHT22;5809;53.262;10.408;2023-07-02T20:39:19;16.00;99.90
11505;DHT22;5809;53.262;10.408;2023-07-02T20:41:47;16.40;99.90
11505;DHT22;5809;53.262;10.408;2023-07-02T20:44:14;16.00;16.80
11505;DHT22;5809;53.262;10.408;2023-07-02T20:46:42;15.80;1.00
11505;DHT22;5809;53.262;10.408;2023-07-02T20:49:12;15.80;99.90
11505;DHT22;5809;53.262;10.408;2023-07-02T20:51:41;15.80;99.90
11505;DHT22;5809;53.262;10.408;2023-07-02T20:54:10;15.70;93.60
11505;DHT22;5809;53.262;10.408;2023-07-02T20:56:37;15.60;11.20
11505;DHT22;5809;53.262;10.408;2023-07-02T20:59:04;15.60;1.00
11505;DHT22;5809;53.262;10.408;2023-07-02T21:01:33;15.50;99.90
11505;DHT22;5809;53.262;10.408;2023-07-02T21:04:00;15.50;27.50
11505;DHT22;5809;53.262;10.408;2023-07-02T21:06:32;15.30;97.40
11505;DHT22;5809;53.262;10.408;2023-07-02T21:11:28;15.30;99.90
11505;DHT22;5809;53.262;10.408;2023-07-02T21:18:51;15.10;1.00
11505;DHT22;5809;53.262;10.408;2023-07-02T21:21:18;15.10;99.90
11505;DHT22;5809;53.262;10.408;2023-07-02T21:28:41;15.00;1.00
11505;DHT22;5809;53.262;10.408;2023-07-02T21:33:38;14.90;1.00